sensor_id;sensor_type;location;lat;lon;timestamp;temperature;humidity
4209;DHT22;36320;48.860;2.380;2023-02-26T00:01:41;8.30;56.20
4209;DHT22;36320;48.860;2.380;2023-02-26T00:04:08;8.30;55.90
4209;DHT22;36320;48.860;2.380;2023-02-26T00:06:37;8.30;55.90
4209;DHT22;36320;48.860;2.380;2023-02-26T00:09:04;8.50;55.80
4209;DHT22;36320;48.860;2.380;2023-02-26T00:11:32;8.20;55.60
4209;DHT22;36320;48.860;2.380;2023-02-26T00:14:00;8.20;55.70
4209;DHT22;36320;48.860;2.380;2023-02-26T00:16:31;8.10;55.60
4209;DHT22;36320;48.860;2.380;2023-02-26T00:19:01;8.10;55.90
4209;DHT22;36320;48.860;2.380;2023-02-26T00:21:28;8.10;55.60
4209;DHT22;36320;48.860;2.380;2023-02-26T00:23:56;8.10;55.50
4209;DHT22;36320;48.860;2.380;2023-02-26T00:26:29;8.10;55.60
4209;DHT22;36320;48.860;2.380;2023-02-26T00:28:55;8.10;55.50
4209;DHT22;36320;48.860;2.380;2023-02-26T00:31:22;8.00;55.50
4209;DHT22;36320;48.860;2.380;2023-02-26T00:33:53;7.90;55.50
4209;DHT22;36320;48.860;2.380;2023-02-26T00:36:49;7.90;55.60
4209;DHT22;36320;48.860;2.380;2023-02-26T00:39:40;7.80;55.60
4209;DHT22;36320;48.860;2.380;2023-02-26T00:42:09;7.70;55.60
4209;DHT22;36320;48.860;2.380;2023-02-26T00:44:38;7.70;55.60
4209;DHT22;36320;48.860;2.380;2023-02-26T00:47:23;7.50;55.40
4209;DHT22;36320;48.860;2.380;2023-02-26T00:50:14;7.40;55.60
4209;DHT22;36320;48.860;2.380;2023-02-26T00:55:29;7.50;55.70
4209;DHT22;36320;48.860;2.380;2023-02-26T00:57:55;7.50;55.50
4209;DHT22;36320;48.860;2.380;2023-02-26T01:00:21;7.50;55.50
4209;DHT22;36320;48.860;2.380;2023-02-26T01:02:47;7.50;55.30
4209;DHT22;36320;48.860;2.380;2023-02-26T01:05:14;7.40;55.50
4209;DHT22;36320;48.860;2.380;2023-02-26T01:10:24;7.60;55.40
4209;DHT22;36320;48.860;2.380;2023-02-26T01:12:49;7.50;55.40
4209;DHT22;36320;48.860;2.380;2023-02-26T01:15:17;7.50;55.30
4209;DHT22;36320;48.860;2.380;2023-02-26T01:18:00;7.40;55.20
4209;DHT22;36320;48.860;2.380;2023-02-26T01:20:43;7.50;55.30
4209;DHT22;36320;48.860;2.380;2023-02-26T01:23:15;7.40;55.20
4209;DHT22;36320;48.860;2.380;2023-02-26T01:25:58;7.30;55.00
4209;DHT22;36320;48.860;2.380;2023-02-26T01:28:25;7.20;55.10
4209;DHT22;36320;48.860;2.380;2023-02-26T01:30:54;7.20;55.20
4209;DHT22;36320;48.860;2.380;2023-02-26T01:33:45;7.30;55.30
4209;DHT22;36320;48.860;2.380;2023-02-26T01:36:21;7.30;55.10
4209;DHT22;36320;48.860;2.380;2023-02-26T01:41:35;7.20;55.10
4209;DHT22;36320;48.860;2.380;2023-02-26T01:47:05;7.00;55.60
4209;DHT22;36320;48.860;2.380;2023-02-26T01:49:35;7.00;55.50
4209;DHT22;36320;48.860;2.380;2023-02-26T01:52:05;7.10;55.30
4209;DHT22;36320;48.860;2.380;2023-02-26T01:54:37;6.90;55.20
4209;DHT22;36320;48.860;2.380;2023-02-26T01:57:08;6.70;55.20
4209;DHT22;36320;48.860;2.380;2023-02-26T01:59:38;7.00;55.60
4209;DHT22;36320;48.860;2.380;2023-02-26T02:02:07;7.00;55.20
4209;DHT22;36320;48.860;2.380;2023-02-26T02:04:35;7.10;55.20
4209;DHT22;36320;48.860;2.380;2023-02-26T02:07:03;7.10;55.00
4209;DHT22;36320;48.860;2.380;2023-02-26T02:09:30;7.00;55.00
4209;DHT22;36320;48.860;2.380;2023-02-26T02:12:43;7.00;55.00
4209;DHT22;36320;48.860;2.380;2023-02-26T02:31:21;6.50;55.20
4209;DHT22;36320;48.860;2.380;2023-02-26T02:34:21;6.60;55.30
4209;DHT22;36320;48.860;2.380;2023-02-26T02:36:56;6.40;55.00
4209;DHT22;36320;48.860;2.380;2023-02-26T02:39:28;6.30;55.20
4209;DHT22;36320;48.860;2.380;2023-02-26T02:44:48;6.30;55.50
4209;DHT22;36320;48.860;2.380;2023-02-26T02:47:16;6.50;55.50
4209;DHT22;36320;48.860;2.380;2023-02-26T02:49:47;6.40;55.00
4209;DHT22;36320;48.860;2.380;2023-02-26T02:52:25;6.20;55.20
4209;DHT22;36320;48.860;2.380;2023-02-26T02:55:01;6.20;55.40
4209;DHT22;36320;48.860;2.380;2023-02-26T02:57:44;6.30;55.40
4209;DHT22;36320;48.860;2.380;2023-02-26T03:00:13;6.20;55.30
4209;DHT22;36320;48.860;2.380;2023-02-26T03:02:52;6.20;55.20
4209;DHT22;36320;48.860;2.380;2023-02-26T03:05:18;6.50;55.20
4209;DHT22;36320;48.860;2.380;2023-02-26T03:07:52;6.50;54.90
4209;DHT22;36320;48.860;2.380;2023-02-26T03:10:19;6.50;54.80
4209;DHT22;36320;48.860;2.380;2023-02-26T03:12:44;6.50;54.80
4209;DHT22;36320;48.860;2.380;2023-02-26T03:15:11;6.60;54.70
4209;DHT22;36320;48.860;2.380;2023-02-26T03:20:55;6.70;54.70
4209;DHT22;36320;48.860;2.380;2023-02-26T03:23:59;6.80;54.70
4209;DHT22;36320;48.860;2.380;2023-02-26T03:26:51;6.70;54.50
4209;DHT22;36320;48.860;2.380;2023-02-26T03:29:32;6.70;54.30
4209;DHT22;36320;48.860;2.380;2023-02-26T03:32:42;6.70;54.40
4209;DHT22;36320;48.860;2.380;2023-02-26T03:35:16;6.90;54.60
4209;DHT22;36320;48.860;2.380;2023-02-26T03:37:50;6.80;54.40
4209;DHT22;36320;48.860;2.380;2023-02-26T03:40:28;6.80;54.50
4209;DHT22;36320;48.860;2.380;2023-02-26T03:43:32;6.80;54.40
4209;DHT22;36320;48.860;2.380;2023-02-26T03:45:53;6.80;54.40
4209;DHT22;36320;48.860;2.380;2023-02-26T03:48:25;6.70;54.20
4209;DHT22;36320;48.860;2.380;2023-02-26T03:51:01;6.70;54.30
4209;DHT22;36320;48.860;2.380;2023-02-26T03:53:35;6.80;54.50
4209;DHT22;36320;48.860;2.380;2023-02-26T03:56:21;6.90;54.60
4209;DHT22;36320;48.860;2.380;2023-02-26T03:58:49;6.80;54.30
4209;DHT22;36320;48.860;2.380;2023-02-26T04:01:24;6.80;54.40
4209;DHT22;36320;48.860;2.380;2023-02-26T04:04:00;6.70;54.20
4209;DHT22;36320;48.860;2.380;2023-02-26T04:06:27;6.80;54.40
4209;DHT22;36320;48.860;2.380;2023-02-26T04:08:53;6.80;54.40
4209;DHT22;36320;48.860;2.380;2023-02-26T04:11:21;6.60;54.40
4209;DHT22;36320;48.860;2.380;2023-02-26T04:13:47;6.40;54.40
4209;DHT22;36320;48.860;2.380;2023-02-26T04:16:15;6.50;54.80
4209;DHT22;36320;48.860;2.380;2023-02-26T04:18:41;6.40;54.60
4209;DHT22;36320;48.860;2.380;2023-02-26T04:21:13;6.10;54.60
4209;DHT22;36320;48.860;2.380;2023-02-26T04:23:39;6.20;55.00
4209;DHT22;36320;48.860;2.380;2023-02-26T04:26:05;6.20;55.40
4209;DHT22;36320;48.860;2.380;2023-02-26T04:28:30;6.30;55.00
4209;DHT22;36320;48.860;2.380;2023-02-26T04:30:56;6.30;54.90
4209;DHT22;36320;48.860;2.380;2023-02-26T04:33:22;6.20;54.90
4209;DHT22;36320;48.860;2.380;2023-02-26T04:35:48;6.20;54.90
4209;DHT22;36320;48.860;2.380;2023-02-26T04:38:13;6.20;54.90
4209;DHT22;36320;48.860;2.380;2023-02-26T04:40:39;6.30;55.20
4209;DHT22;36320;48.860;2.380;2023-02-26T04:43:05;6.40;55.10
4209;DHT22;36320;48.860;2.380;2023-02-26T04:45:31;6.40;55.00
4209;DHT22;36320;48.860;2.380;2023-02-26T04:47:56;6.30;55.00
4209;DHT22;36320;48.860;2.380;2023-02-26T04:50:22;6.30;55.10
4209;DHT22;36320;48.860;2.380;2023-02-26T04:52:48;6.40;55.10
4209;DHT22;36320;48.860;2.380;2023-02-26T04:55:13;6.40;55.20
4209;DHT22;36320;48.860;2.380;2023-02-26T04:57:39;6.30;55.30
4209;DHT22;36320;48.860;2.380;2023-02-26T05:00:05;6.40;55.20
4209;DHT22;36320;48.860;2.380;2023-02-26T05:02:32;6.50;55.10
4209;DHT22;36320;48.860;2.380;2023-02-26T05:04:58;6.40;55.00
4209;DHT22;36320;48.860;2.380;2023-02-26T05:07:24;6.40;55.10
4209;DHT22;36320;48.860;2.380;2023-02-26T05:09:50;6.40;55.00
4209;DHT22;36320;48.860;2.380;2023-02-26T05:12:16;6.40;55.10
4209;DHT22;36320;48.860;2.380;2023-02-26T05:14:42;6.30;54.90
4209;DHT22;36320;48.860;2.380;2023-02-26T05:17:08;6.20;55.10
4209;DHT22;36320;48.860;2.380;2023-02-26T05:19:34;6.00;55.60
4209;DHT22;36320;48.860;2.380;2023-02-26T05:21:59;6.00;55.60
4209;DHT22;36320;48.860;2.380;2023-02-26T05:24:25;6.00;55.50
4209;DHT22;36320;48.860;2.380;2023-02-26T05:26:51;6.20;55.70
4209;DHT22;36320;48.860;2.380;2023-02-26T05:29:17;6.00;55.50
4209;DHT22;36320;48.860;2.380;2023-02-26T05:31:43;6.00;55.90
4209;DHT22;36320;48.860;2.380;2023-02-26T05:34:09;6.10;55.80
4209;DHT22;36320;48.860;2.380;2023-02-26T05:36:35;6.20;55.80
4209;DHT22;36320;48.860;2.380;2023-02-26T05:39:01;6.10;55.70
4209;DHT22;36320;48.860;2.380;2023-02-26T05:41:26;6.00;55.70
4209;DHT22;36320;48.860;2.380;2023-02-26T05:43:52;6.10;55.80
4209;DHT22;36320;48.860;2.380;2023-02-26T05:46:18;5.90;55.70
4209;DHT22;36320;48.860;2.380;2023-02-26T05:48:44;5.90;56.10
4209;DHT22;36320;48.860;2.380;2023-02-26T05:51:10;5.80;55.90
4209;DHT22;36320;48.860;2.380;2023-02-26T05:53:37;5.80;56.00
4209;DHT22;36320;48.860;2.380;2023-02-26T05:56:04;5.80;56.10
4209;DHT22;36320;48.860;2.380;2023-02-26T05:58:30;5.40;56.10
4209;DHT22;36320;48.860;2.380;2023-02-26T06:00:58;5.40;56.40
4209;DHT22;36320;48.860;2.380;2023-02-26T06:03:24;5.40;56.60
4209;DHT22;36320;48.860;2.380;2023-02-26T06:05:50;5.40;56.50
4209;DHT22;36320;48.860;2.380;2023-02-26T06:08:16;5.50;56.70
4209;DHT22;36320;48.860;2.380;2023-02-26T06:10:42;5.40;56.70
4209;DHT22;36320;48.860;2.380;2023-02-26T06:13:08;5.20;57.00
4209;DHT22;36320;48.860;2.380;2023-02-26T06:15:34;5.30;57.10
4209;DHT22;36320;48.860;2.380;2023-02-26T06:18:00;5.30;57.20
4209;DHT22;36320;48.860;2.380;2023-02-26T06:20:25;5.10;57.10
4209;DHT22;36320;48.860;2.380;2023-02-26T06:22:52;5.50;57.20
4209;DHT22;36320;48.860;2.380;2023-02-26T06:25:18;5.50;57.10
4209;DHT22;36320;48.860;2.380;2023-02-26T06:27:45;5.60;57.20
4209;DHT22;36320;48.860;2.380;2023-02-26T06:30:11;5.50;57.30
4209;DHT22;36320;48.860;2.380;2023-02-26T06:32:37;5.60;57.40
4209;DHT22;36320;48.860;2.380;2023-02-26T06:35:03;5.40;57.40
4209;DHT22;36320;48.860;2.380;2023-02-26T06:37:29;5.40;57.40
4209;DHT22;36320;48.860;2.380;2023-02-26T06:39:55;5.60;57.50
4209;DHT22;36320;48.860;2.380;2023-02-26T06:42:21;5.50;57.30
4209;DHT22;36320;48.860;2.380;2023-02-26T06:44:47;5.60;57.50
4209;DHT22;36320;48.860;2.380;2023-02-26T06:47:13;5.40;57.50
4209;DHT22;36320;48.860;2.380;2023-02-26T06:49:39;5.60;57.60
4209;DHT22;36320;48.860;2.380;2023-02-26T06:52:04;5.50;57.50
4209;DHT22;36320;48.860;2.380;2023-02-26T06:54:31;5.50;57.40
4209;DHT22;36320;48.860;2.380;2023-02-26T06:56:57;5.50;57.60
4209;DHT22;36320;48.860;2.380;2023-02-26T06:59:23;5.50;57.50
4209;DHT22;36320;48.860;2.380;2023-02-26T07:01:50;5.60;57.70
4209;DHT22;36320;48.860;2.380;2023-02-26T07:04:16;5.70;57.50
4209;DHT22;36320;48.860;2.380;2023-02-26T07:06:41;5.80;57.60
4209;DHT22;36320;48.860;2.380;2023-02-26T07:09:07;5.70;57.40
4209;DHT22;36320;48.860;2.380;2023-02-26T07:11:33;5.70;57.60
4209;DHT22;36320;48.860;2.380;2023-02-26T07:14:00;5.80;57.80
4209;DHT22;36320;48.860;2.380;2023-02-26T07:16:26;6.00;57.70
4209;DHT22;36320;48.860;2.380;2023-02-26T07:18:51;5.70;57.30
4209;DHT22;36320;48.860;2.380;2023-02-26T07:21:17;5.50;57.60
4209;DHT22;36320;48.860;2.380;2023-02-26T07:23:43;5.30;57.80
4209;DHT22;36320;48.860;2.380;2023-02-26T07:26:08;5.50;58.20
4209;DHT22;36320;48.860;2.380;2023-02-26T07:28:34;5.60;58.20
4209;DHT22;36320;48.860;2.380;2023-02-26T07:31:00;5.80;58.40
4209;DHT22;36320;48.860;2.380;2023-02-26T07:33:26;5.70;58.00
4209;DHT22;36320;48.860;2.380;2023-02-26T07:35:53;5.80;58.20
4209;DHT22;36320;48.860;2.380;2023-02-26T07:38:19;6.00;58.40
4209;DHT22;36320;48.860;2.380;2023-02-26T07:40:46;5.60;58.20
4209;DHT22;36320;48.860;2.380;2023-02-26T07:43:11;5.80;58.40
4209;DHT22;36320;48.860;2.380;2023-02-26T07:45:37;5.90;58.20
4209;DHT22;36320;48.860;2.380;2023-02-26T07:48:03;5.90;58.20
4209;DHT22;36320;48.860;2.380;2023-02-26T07:50:30;5.90;58.10
4209;DHT22;36320;48.860;2.380;2023-02-26T07:52:58;6.00;58.30
4209;DHT22;36320;48.860;2.380;2023-02-26T07:55:24;6.10;58.20
4209;DHT22;36320;48.860;2.380;2023-02-26T07:57:50;6.20;58.10
4209;DHT22;36320;48.860;2.380;2023-02-26T08:00:16;6.00;58.50
4209;DHT22;36320;48.860;2.380;2023-02-26T08:02:42;6.00;58.00
4209;DHT22;36320;48.860;2.380;2023-02-26T08:05:08;5.90;58.00
4209;DHT22;36320;48.860;2.380;2023-02-26T08:07:34;5.80;58.20
4209;DHT22;36320;48.860;2.380;2023-02-26T08:09:59;5.90;58.30
4209;DHT22;36320;48.860;2.380;2023-02-26T08:12:26;5.90;58.40
4209;DHT22;36320;48.860;2.380;2023-02-26T08:14:52;6.00;58.50
4209;DHT22;36320;48.860;2.380;2023-02-26T08:17:17;6.10;58.50
4209;DHT22;36320;48.860;2.380;2023-02-26T08:19:43;6.10;58.30
4209;DHT22;36320;48.860;2.380;2023-02-26T08:22:09;6.10;58.30
4209;DHT22;36320;48.860;2.380;2023-02-26T08:24:35;6.00;58.40
4209;DHT22;36320;48.860;2.380;2023-02-26T08:27:00;6.20;58.50
4209;DHT22;36320;48.860;2.380;2023-02-26T08:29:26;6.40;58.40
4209;DHT22;36320;48.860;2.380;2023-02-26T08:31:52;6.30;58.20
4209;DHT22;36320;48.860;2.380;2023-02-26T08:34:18;6.10;58.00
4209;DHT22;36320;48.860;2.380;2023-02-26T08:36:44;6.20;58.40
4209;DHT22;36320;48.860;2.380;2023-02-26T08:39:09;6.00;58.40
4209;DHT22;36320;48.860;2.380;2023-02-26T08:41:36;6.30;58.60
4209;DHT22;36320;48.860;2.380;2023-02-26T08:44:05;6.30;58.30
4209;DHT22;36320;48.860;2.380;2023-02-26T08:46:31;6.40;58.30
4209;DHT22;36320;48.860;2.380;2023-02-26T08:48:57;6.40;58.10
4209;DHT22;36320;48.860;2.380;2023-02-26T08:51:23;6.40;58.10
4209;DHT22;36320;48.860;2.380;2023-02-26T08:53:49;6.40;58.00
4209;DHT22;36320;48.860;2.380;2023-02-26T08:56:15;6.40;57.80
4209;DHT22;36320;48.860;2.380;2023-02-26T08:58:42;6.60;57.90
4209;DHT22;36320;48.860;2.380;2023-02-26T09:01:08;6.60;57.30
4209;DHT22;36320;48.860;2.380;2023-02-26T09:03:34;6.70;57.10
4209;DHT22;36320;48.860;2.380;2023-02-26T09:06:00;6.70;56.80
4209;DHT22;36320;48.860;2.380;2023-02-26T09:08:26;6.70;56.60
4209;DHT22;36320;48.860;2.380;2023-02-26T09:10:51;6.70;56.40
4209;DHT22;36320;48.860;2.380;2023-02-26T09:13:17;6.70;55.90
4209;DHT22;36320;48.860;2.380;2023-02-26T09:15:43;6.80;55.80
4209;DHT22;36320;48.860;2.380;2023-02-26T10:16:36;6.90;50.50
4209;DHT22;36320;48.860;2.380;2023-02-26T10:19:13;7.10;50.30
4209;DHT22;36320;48.860;2.380;2023-02-26T10:22:04;6.90;50.00
4209;DHT22;36320;48.860;2.380;2023-02-26T10:24:43;7.10;49.70
4209;DHT22;36320;48.860;2.380;2023-02-26T10:27:15;7.20;49.60
4209;DHT22;36320;48.860;2.380;2023-02-26T10:29:52;7.20;49.20
4209;DHT22;36320;48.860;2.380;2023-02-26T10:32:40;7.30;49.10
4209;DHT22;36320;48.860;2.380;2023-02-26T10:35:14;7.30;48.70
4209;DHT22;36320;48.860;2.380;2023-02-26T10:37:54;7.30;48.10
4209;DHT22;36320;48.860;2.380;2023-02-26T10:43:25;7.30;47.50
4209;DHT22;36320;48.860;2.380;2023-02-26T10:51:30;7.60;46.00
4209;DHT22;36320;48.860;2.380;2023-02-26T10:56:37;8.20;45.60
4209;DHT22;36320;48.860;2.380;2023-02-26T10:59:05;8.40;45.20
4209;DHT22;36320;48.860;2.380;2023-02-26T11:01:31;8.50;44.70
4209;DHT22;36320;48.860;2.380;2023-02-26T11:04:00;8.70;44.10
4209;DHT22;36320;48.860;2.380;2023-02-26T11:07:09;8.70;43.90
4209;DHT22;36320;48.860;2.380;2023-02-26T11:09:43;8.90;43.50
4209;DHT22;36320;48.860;2.380;2023-02-26T11:14:36;8.70;42.80
4209;DHT22;36320;48.860;2.380;2023-02-26T11:17:25;8.70;42.40
4209;DHT22;36320;48.860;2.380;2023-02-26T11:20:03;8.90;42.40
4209;DHT22;36320;48.860;2.380;2023-02-26T11:22:44;8.80;42.10
4209;DHT22;36320;48.860;2.380;2023-02-26T11:25:17;8.80;42.10
4209;DHT22;36320;48.860;2.380;2023-02-26T11:27:43;8.90;42.00
4209;DHT22;36320;48.860;2.380;2023-02-26T11:30:21;8.80;41.50
4209;DHT22;36320;48.860;2.380;2023-02-26T11:32:51;8.60;41.50
4209;DHT22;36320;48.860;2.380;2023-02-26T11:35:19;8.60;41.70
4209;DHT22;36320;48.860;2.380;2023-02-26T11:37:49;8.50;41.70
4209;DHT22;36320;48.860;2.380;2023-02-26T11:43:07;8.40;41.70
4209;DHT22;36320;48.860;2.380;2023-02-26T11:45:37;8.50;41.60
4209;DHT22;36320;48.860;2.380;2023-02-26T11:48:12;8.60;41.70
4209;DHT22;36320;48.860;2.380;2023-02-26T11:50:45;8.90;41.70
4209;DHT22;36320;48.860;2.380;2023-02-26T11:53:25;9.30;41.60
4209;DHT22;36320;48.860;2.380;2023-02-26T11:56:01;9.40;41.40
4209;DHT22;36320;48.860;2.380;2023-02-26T11:58:33;9.30;41.30
4209;DHT22;36320;48.860;2.380;2023-02-26T12:01:01;8.80;40.90
4209;DHT22;36320;48.860;2.380;2023-02-26T12:03:32;8.50;41.10
4209;DHT22;36320;48.860;2.380;2023-02-26T12:05:59;8.50;41.50
4209;DHT22;36320;48.860;2.380;2023-02-26T12:08:34;8.40;41.60
4209;DHT22;36320;48.860;2.380;2023-02-26T12:16:54;8.40;41.80
4209;DHT22;36320;48.860;2.380;2023-02-26T12:31:08;9.30;40.60
4209;DHT22;36320;48.860;2.380;2023-02-26T12:34:08;9.50;40.60
4209;DHT22;36320;48.860;2.380;2023-02-26T12:48:47;9.70;40.50
4209;DHT22;36320;48.860;2.380;2023-02-26T12:51:31;9.50;40.10
4209;DHT22;36320;48.860;2.380;2023-02-26T12:54:35;10.10;39.20
4209;DHT22;36320;48.860;2.380;2023-02-26T13:08:40;10.70;36.70
4209;DHT22;36320;48.860;2.380;2023-02-26T13:25:11;10.70;37.00
4209;DHT22;36320;48.860;2.380;2023-02-26T13:27:38;10.60;37.10
4209;DHT22;36320;48.860;2.380;2023-02-26T13:32:59;10.60;37.30
4209;DHT22;36320;48.860;2.380;2023-02-26T13:35:30;11.10;37.40
4209;DHT22;36320;48.860;2.380;2023-02-26T13:38:13;11.30;37.40
4209;DHT22;36320;48.860;2.380;2023-02-26T13:51:53;10.40;37.30
4209;DHT22;36320;48.860;2.380;2023-02-26T13:59:52;10.20;36.40
4209;DHT22;36320;48.860;2.380;2023-02-26T14:04:59;10.90;36.00
4209;DHT22;36320;48.860;2.380;2023-02-26T14:07:48;11.00;35.70
4209;DHT22;36320;48.860;2.380;2023-02-26T14:10:59;11.00;35.50
4209;DHT22;36320;48.860;2.380;2023-02-26T14:13:20;10.90;35.20
4209;DHT22;36320;48.860;2.380;2023-02-26T14:18:30;11.00;35.00
4209;DHT22;36320;48.860;2.380;2023-02-26T14:24:04;11.30;35.20
4209;DHT22;36320;48.860;2.380;2023-02-26T14:26:34;11.20;34.70
4209;DHT22;36320;48.860;2.380;2023-02-26T14:34:15;10.20;35.40
4209;DHT22;36320;48.860;2.380;2023-02-26T14:36:51;10.40;35.60
4209;DHT22;36320;48.860;2.380;2023-02-26T14:39:38;10.90;35.40
4209;DHT22;36320;48.860;2.380;2023-02-26T14:42:13;10.90;35.00
4209;DHT22;36320;48.860;2.380;2023-02-26T14:44:43;10.40;35.00
4209;DHT22;36320;48.860;2.380;2023-02-26T14:47:11;10.20;35.10
4209;DHT22;36320;48.860;2.380;2023-02-26T14:49:45;10.20;35.20
4209;DHT22;36320;48.860;2.380;2023-02-26T14:55:52;11.10;35.50
4209;DHT22;36320;48.860;2.380;2023-02-26T15:10:48;9.90;37.00
4209;DHT22;36320;48.860;2.380;2023-02-26T15:14:12;10.40;36.00
4209;DHT22;36320;48.860;2.380;2023-02-26T15:24:24;9.70;37.10
4209;DHT22;36320;48.860;2.380;2023-02-26T15:26:57;9.70;37.30
4209;DHT22;36320;48.860;2.380;2023-02-26T15:29:31;9.90;37.40
4209;DHT22;36320;48.860;2.380;2023-02-26T15:32:13;10.00;36.40
4209;DHT22;36320;48.860;2.380;2023-02-26T15:34:45;9.80;37.20
4209;DHT22;36320;48.860;2.380;2023-02-26T15:37:21;9.80;37.50
4209;DHT22;36320;48.860;2.380;2023-02-26T15:39:50;10.00;36.80
4209;DHT22;36320;48.860;2.380;2023-02-26T15:42:23;10.00;36.90
4209;DHT22;36320;48.860;2.380;2023-02-26T15:44:54;9.90;37.70
4209;DHT22;36320;48.860;2.380;2023-02-26T15:47:20;9.70;37.90
4209;DHT22;36320;48.860;2.380;2023-02-26T15:49:48;9.50;37.80
4209;DHT22;36320;48.860;2.380;2023-02-26T15:52:25;9.40;37.80
4209;DHT22;36320;48.860;2.380;2023-02-26T15:54:58;9.30;37.70
4209;DHT22;36320;48.860;2.380;2023-02-26T15:57:26;9.30;37.90
4209;DHT22;36320;48.860;2.380;2023-02-26T16:00:13;9.40;38.10
4209;DHT22;36320;48.860;2.380;2023-02-26T16:02:41;9.40;38.10
4209;DHT22;36320;48.860;2.380;2023-02-26T16:05:11;9.30;38.20
4209;DHT22;36320;48.860;2.380;2023-02-26T16:07:39;9.20;38.10
4209;DHT22;36320;48.860;2.380;2023-02-26T16:10:14;9.20;38.00
4209;DHT22;36320;48.860;2.380;2023-02-26T16:12:42;9.10;38.00
4209;DHT22;36320;48.860;2.380;2023-02-26T16:15:18;9.20;38.20
4209;DHT22;36320;48.860;2.380;2023-02-26T16:17:48;9.20;38.10
4209;DHT22;36320;48.860;2.380;2023-02-26T16:20:18;9.10;38.00
4209;DHT22;36320;48.860;2.380;2023-02-26T16:22:48;9.00;38.60
4209;DHT22;36320;48.860;2.380;2023-02-26T16:25:24;8.80;37.90
4209;DHT22;36320;48.860;2.380;2023-02-26T16:28:15;8.60;38.10
4209;DHT22;36320;48.860;2.380;2023-02-26T16:30:48;8.60;38.40
4209;DHT22;36320;48.860;2.380;2023-02-26T16:33:17;8.50;38.50
4209;DHT22;36320;48.860;2.380;2023-02-26T16:35:52;8.50;38.50
4209;DHT22;36320;48.860;2.380;2023-02-26T16:38:31;8.50;39.00
4209;DHT22;36320;48.860;2.380;2023-02-26T16:41:11;8.60;39.30
4209;DHT22;36320;48.860;2.380;2023-02-26T16:46:19;8.60;38.80
4209;DHT22;36320;48.860;2.380;2023-02-26T16:48:54;8.70;38.80
4209;DHT22;36320;48.860;2.380;2023-02-26T16:51:25;8.70;38.70
4209;DHT22;36320;48.860;2.380;2023-02-26T16:53:59;8.50;38.60
4209;DHT22;36320;48.860;2.380;2023-02-26T16:56:31;8.40;38.90
4209;DHT22;36320;48.860;2.380;2023-02-26T17:01:35;8.30;39.00
4209;DHT22;36320;48.860;2.380;2023-02-26T17:04:06;8.30;39.20
4209;DHT22;36320;48.860;2.380;2023-02-26T17:06:37;8.40;39.30
4209;DHT22;36320;48.860;2.380;2023-02-26T17:09:05;8.30;39.20
4209;DHT22;36320;48.860;2.380;2023-02-26T17:11:39;8.10;39.40
4209;DHT22;36320;48.860;2.380;2023-02-26T17:16:41;8.20;39.80
4209;DHT22;36320;48.860;2.380;2023-02-26T17:19:07;8.30;39.80
4209;DHT22;36320;48.860;2.380;2023-02-26T17:21:37;8.20;39.70
4209;DHT22;36320;48.860;2.380;2023-02-26T17:24:03;8.20;39.90
4209;DHT22;36320;48.860;2.380;2023-02-26T17:26:29;8.20;40.00
4209;DHT22;36320;48.860;2.380;2023-02-26T17:29:05;8.40;40.20
4209;DHT22;36320;48.860;2.380;2023-02-26T17:31:31;8.10;40.00
4209;DHT22;36320;48.860;2.380;2023-02-26T17:33:57;7.90;40.40
4209;DHT22;36320;48.860;2.380;2023-02-26T17:36:23;7.90;40.70
4209;DHT22;36320;48.860;2.380;2023-02-26T17:38:51;7.60;41.00
4209;DHT22;36320;48.860;2.380;2023-02-26T17:41:17;7.60;41.20
4209;DHT22;36320;48.860;2.380;2023-02-26T17:43:46;7.70;41.30
4209;DHT22;36320;48.860;2.380;2023-02-26T17:46:35;7.80;41.30
4209;DHT22;36320;48.860;2.380;2023-02-26T17:49:01;7.60;41.20
4209;DHT22;36320;48.860;2.380;2023-02-26T17:51:27;7.70;41.40
4209;DHT22;36320;48.860;2.380;2023-02-26T17:53:53;7.60;41.30
4209;DHT22;36320;48.860;2.380;2023-02-26T17:56:26;7.50;41.30
4209;DHT22;36320;48.860;2.380;2023-02-26T17:58:53;7.60;41.60
4209;DHT22;36320;48.860;2.380;2023-02-26T18:01:20;7.60;41.50
4209;DHT22;36320;48.860;2.380;2023-02-26T18:03:48;7.50;41.50
4209;DHT22;36320;48.860;2.380;2023-02-26T18:06:14;7.60;41.70
4209;DHT22;36320;48.860;2.380;2023-02-26T18:08:43;7.70;41.70
4209;DHT22;36320;48.860;2.380;2023-02-26T18:11:11;7.80;41.70
4209;DHT22;36320;48.860;2.380;2023-02-26T18:13:38;7.80;41.70
4209;DHT22;36320;48.860;2.380;2023-02-26T18:16:04;7.90;41.60
4209;DHT22;36320;48.860;2.380;2023-02-26T18:18:31;7.60;41.50
4209;DHT22;36320;48.860;2.380;2023-02-26T18:20:58;7.70;41.70
4209;DHT22;36320;48.860;2.380;2023-02-26T18:23:24;7.60;41.80
4209;DHT22;36320;48.860;2.380;2023-02-26T18:25:51;7.60;41.80
4209;DHT22;36320;48.860;2.380;2023-02-26T18:28:25;7.60;41.80
4209;DHT22;36320;48.860;2.380;2023-02-26T18:30:53;7.50;41.80
4209;DHT22;36320;48.860;2.380;2023-02-26T18:33:20;7.60;42.00
4209;DHT22;36320;48.860;2.380;2023-02-26T18:35:51;7.60;41.90
4209;DHT22;36320;48.860;2.380;2023-02-26T18:38:22;7.50;41.90
4209;DHT22;36320;48.860;2.380;2023-02-26T18:40:51;7.50;42.00
4209;DHT22;36320;48.860;2.380;2023-02-26T18:43:19;7.50;41.90
4209;DHT22;36320;48.860;2.380;2023-02-26T18:45:47;7.40;41.90
4209;DHT22;36320;48.860;2.380;2023-02-26T18:48:15;7.30;42.10
4209;DHT22;36320;48.860;2.380;2023-02-26T18:50:43;7.30;42.20
4209;DHT22;36320;48.860;2.380;2023-02-26T18:53:10;7.40;42.30
4209;DHT22;36320;48.860;2.380;2023-02-26T18:55:37;7.50;42.40
4209;DHT22;36320;48.860;2.380;2023-02-26T18:58:03;7.70;42.50
4209;DHT22;36320;48.860;2.380;2023-02-26T19:00:30;7.40;42.10
4209;DHT22;36320;48.860;2.380;2023-02-26T19:02:56;7.30;42.10
4209;DHT22;36320;48.860;2.380;2023-02-26T19:05:25;6.90;42.10
4209;DHT22;36320;48.860;2.380;2023-02-26T19:07:53;7.10;42.30
4209;DHT22;36320;48.860;2.380;2023-02-26T19:10:19;7.20;42.40
4209;DHT22;36320;48.860;2.380;2023-02-26T19:12:45;7.10;42.40
4209;DHT22;36320;48.860;2.380;2023-02-26T19:15:13;7.10;42.50
4209;DHT22;36320;48.860;2.380;2023-02-26T19:17:40;7.10;42.50
4209;DHT22;36320;48.860;2.380;2023-02-26T19:20:07;7.20;42.60
4209;DHT22;36320;48.860;2.380;2023-02-26T19:22:33;7.20;42.50
4209;DHT22;36320;48.860;2.380;2023-02-26T19:24:58;7.10;42.50
4209;DHT22;36320;48.860;2.380;2023-02-26T19:27:24;7.10;42.60
4209;DHT22;36320;48.860;2.380;2023-02-26T19:29:50;7.10;42.70
4209;DHT22;36320;48.860;2.380;2023-02-26T19:32:17;7.00;42.50
4209;DHT22;36320;48.860;2.380;2023-02-26T19:34:43;6.90;42.60
4209;DHT22;36320;48.860;2.380;2023-02-26T19:37:09;6.80;42.50
4209;DHT22;36320;48.860;2.380;2023-02-26T19:39:35;6.90;42.80
4209;DHT22;36320;48.860;2.380;2023-02-26T19:42:02;6.90;42.80
4209;DHT22;36320;48.860;2.380;2023-02-26T19:44:35;6.80;42.80
4209;DHT22;36320;48.860;2.380;2023-02-26T19:47:01;6.80;42.80
4209;DHT22;36320;48.860;2.380;2023-02-26T19:49:28;6.80;42.80
4209;DHT22;36320;48.860;2.380;2023-02-26T19:51:54;6.90;43.50
4209;DHT22;36320;48.860;2.380;2023-02-26T19:54:20;6.80;43.30
4209;DHT22;36320;48.860;2.380;2023-02-26T19:56:48;6.80;42.80
4209;DHT22;36320;48.860;2.380;2023-02-26T19:59:14;6.70;42.80
4209;DHT22;36320;48.860;2.380;2023-02-26T20:01:41;6.70;42.80
4209;DHT22;36320;48.860;2.380;2023-02-26T20:04:08;6.70;43.60
4209;DHT22;36320;48.860;2.380;2023-02-26T20:06:34;6.80;43.10
4209;DHT22;36320;48.860;2.380;2023-02-26T20:09:01;6.70;42.80